Time;durP1;ratioP1;P1;durP2;ratioP2;P2;SDS_P1;SDS_P2;PMS_P1;PMS_P2;Temp;Humidity;BMP_temperature;BMP_pressure;BME280_temperature;BME280_humidity;BME280_pressure;Samples;Min_cycle;Max_cycle;Signal;HPM_P1;HPM_P2
2022/08/28 00:00:04;;;;;;;74.18;31.30;;;;;;;-145.69;100.00;71139.75;5053284;28;20294;-76
2022/08/28 00:02:32;;;;;;;78.65;36.28;;;;;;;-145.69;100.00;71131.78;5052446;28;20439;-76
2022/08/28 00:05:00;;;;;;;63.83;29.38;;;;;;;-145.69;100.00;71123.81;5052987;28;20263;-75
2022/08/28 00:07:26;;;;;;;66.25;30.15;;;;;;;-145.69;100.00;71125.81;5053005;28;20199;-75
2022/08/28 00:09:53;;;;;;;101.80;36.33;;;;;;;-145.69;100.00;71117.84;5052864;28;20226;-76
2022/08/28 00:12:21;;;;;;;78.55;32.47;;;;;;;-145.69;100.00;71131.78;5053188;28;20199;-76
2022/08/28 00:14:47;;;;;;;62.22;29.20;;;;;;;-145.69;100.00;71139.75;5053063;28;20207;-75
2022/08/28 00:17:14;;;;;;;53.80;26.88;;;;;;;-145.69;100.00;71139.75;5053068;28;20206;-76
2022/08/28 00:19:40;;;;;;;70.85;28.88;;;;;;;-145.69;100.00;71135.75;5059795;28;20286;-76
2022/08/28 00:22:07;;;;;;;66.93;29.83;;;;;;;-145.69;100.00;71125.81;5072658;28;20206;-75
2022/08/28 00:24:35;;;;;;;74.43;31.58;;;;;;;-145.69;100.00;71119.84;5072294;28;20226;-76
2022/08/28 00:29:47;;;;;;;88.95;33.20;;;;;;;-145.69;100.00;71115.88;5072787;28;20344;-76
2022/08/28 00:32:13;;;;;;;84.03;32.08;;;;;;;-145.69;100.00;71115.88;5072885;28;20210;-76
2022/08/28 00:34:40;;;;;;;83.18;33.13;;;;;;;-145.69;100.00;71115.88;5071635;28;20247;-75
2022/08/28 00:37:07;;;;;;;111.78;40.58;;;;;;;-145.69;100.00;71111.88;5072668;28;20437;-76
2022/08/28 00:39:33;;;;;;;71.55;30.42;;;;;;;-145.69;100.00;71113.88;5072497;28;20198;-76
2022/08/28 00:42:00;;;;;;;74.00;29.20;;;;;;;-145.69;100.00;71113.88;5072691;28;20693;-76
2022/08/28 00:44:28;;;;;;;89.35;32.33;;;;;;;-145.69;100.00;71107.91;5072620;28;20245;-75
2022/08/28 00:46:58;;;;;;;78.32;31.90;;;;;;;-145.69;100.00;71105.91;5072630;28;20203;-76
2022/08/28 00:49:28;;;;;;;80.75;32.65;;;;;;;-145.69;100.00;71101.94;5072189;28;20218;-76
2022/08/28 00:52:07;;;;;;;81.07;33.85;;;;;;;-145.69;100.00;71101.94;5072973;28;20252;-76
2022/08/28 00:54:38;;;;;;;69.03;29.33;;;;;;;-145.69;100.00;71095.97;5072591;28;20309;-76
2022/08/28 00:57:07;;;;;;;64.85;27.98;;;;;;;-145.69;100.00;71103.94;5072608;28;20206;-76
2022/08/28 00:59:33;;;;;;;60.38;28.00;;;;;;;-145.69;100.00;71113.88;5072585;28;20217;-76
2022/08/28 01:02:02;;;;;;;70.53;30.10;;;;;;;-145.69;100.00;71115.88;5072323;28;20206;-75
2022/08/28 01:04:31;;;;;;;64.10;27.83;;;;;;;-145.69;100.00;71117.84;5072191;28;20230;-76
2022/08/28 01:07:00;;;;;;;80.97;32.83;;;;;;;-145.69;100.00;71119.84;5072337;28;20207;-75
2022/08/28 01:09:31;;;;;;;83.15;32.65;;;;;;;-145.69;100.00;71115.88;5072524;28;20626;-75
2022/08/28 01:12:02;;;;;;;89.45;32.67;;;;;;;-145.69;100.00;71113.88;5072512;28;20206;-78
2022/08/28 01:14:32;;;;;;;87.15;34.00;;;;;;;-145.69;100.00;71103.94;5079083;28;20209;-78
2022/08/28 01:16:59;;;;;;;82.88;32.38;;;;;;;-145.69;100.00;71088.00;5057740;28;20282;-77
2022/08/28 01:19:31;;;;;;;87.45;33.97;;;;;;;-145.69;100.00;71092.00;5059547;28;20215;-76
2022/08/28 01:22:07;;;;;;;96.68;34.53;;;;;;;-145.69;100.00;71088.00;5072162;28;20206;-76
2022/08/28 01:24:38;;;;;;;70.28;29.23;;;;;;;-145.69;100.00;71090.00;5072083;28;20233;-76
2022/08/28 01:27:06;;;;;;;66.15;28.70;;;;;;;-145.69;100.00;71092.00;5072503;28;20195;-76
2022/08/28 01:29:32;;;;;;;67.68;30.48;;;;;;;-145.69;100.00;71099.94;5072452;28;20289;-76
2022/08/28 01:31:59;;;;;;;65.28;29.55;;;;;;;-145.69;100.00;71099.94;5072322;28;20596;-76
2022/08/28 01:34:25;;;;;;;71.22;30.00;;;;;;;-145.69;100.00;71099.94;5072142;28;20252;-76
2022/08/28 01:36:52;;;;;;;69.22;29.92;;;;;;;-145.69;100.00;71101.94;5072057;28;20207;-76
2022/08/28 01:39:22;;;;;;;67.38;28.67;;;;;;;-145.69;100.00;71090.00;5072066;28;20286;-76
2022/08/28 01:41:53;;;;;;;66.28;27.58;;;;;;;-145.69;100.00;71082.03;5071745;28;20207;-76
2022/08/28 01:44:23;;;;;;;71.13;28.98;;;;;;;-145.69;100.00;71084.03;5072209;28;20265;-76
2022/08/28 01:46:50;;;;;;;72.03;30.08;;;;;;;-145.69;100.00;71078.06;5075474;28;20657;-75
2022/08/28 01:49:16;;;;;;;77.82;31.90;;;;;;;-145.69;100.00;71072.09;5075359;28;20588;-76
2022/08/28 01:51:43;;;;;;;81.97;32.40;;;;;;;-145.69;100.00;71074.09;5075656;28;20198;-74
2022/08/28 01:54:10;;;;;;;70.93;29.85;;;;;;;-145.69;100.00;71068.13;5075481;28;20660;-75
2022/08/28 01:56:38;;;;;;;61.15;28.45;;;;;;;-145.69;100.00;71072.09;5075700;28;20248;-76
2022/08/28 01:59:08;;;;;;;68.80;28.67;;;;;;;-145.69;100.00;71080.06;5075440;28;20202;-75
2022/08/28 02:01:35;;;;;;;65.35;28.88;;;;;;;-145.69;100.00;71072.09;5075171;28;20195;-75
2022/08/28 02:04:03;;;;;;;53.30;24.75;;;;;;;-145.69;100.00;71074.09;5070491;28;20198;-76
2022/08/28 02:06:30;;;;;;;50.33;23.85;;;;;;;-145.69;100.00;71076.06;5055042;28;20617;-76
2022/08/28 02:08:56;;;;;;;47.75;24.17;;;;;;;-145.69;100.00;71088.00;5055199;28;20199;-76
2022/08/28 02:11:24;;;;;;;40.60;22.17;;;;;;;-145.69;100.00;71103.94;5055432;28;20605;-76
2022/08/28 02:13:52;;;;;;;49.10;24.13;;;;;;;-145.69;100.00;71109.91;5055349;28;20196;-75
2022/08/28 02:16:20;;;;;;;52.88;25.48;;;;;;;-145.69;100.00;71115.88;5055175;28;20559;-76
2022/08/28 02:18:46;;;;;;;51.90;25.33;;;;;;;-145.69;100.00;71115.88;5055175;28;20229;-76
2022/08/28 02:21:13;;;;;;;60.58;26.83;;;;;;;-145.69;100.00;71109.91;5054888;28;20558;-75
2022/08/28 02:23:42;;;;;;;63.95;27.25;;;;;;;-145.69;100.00;71111.88;5055131;28;20208;-76
2022/08/28 02:26:10;;;;;;;48.92;23.75;;;;;;;-145.69;100.00;71115.88;5055109;28;20231;-75
2022/08/28 02:28:36;;;;;;;57.08;25.88;;;;;;;-145.69;100.00;71113.88;5065863;28;20206;-75
2022/08/28 02:31:04;;;;;;;58.75;25.80;;;;;;;-145.69;100.00;71109.91;5074920;28;20214;-77
2022/08/28 02:33:32;;;;;;;53.63;25.30;;;;;;;-145.69;100.00;71101.94;5074676;28;20557;-75
2022/08/28 02:35:59;;;;;;;60.88;28.33;;;;;;;-145.69;100.00;71093.97;5075014;28;20268;-76
2022/08/28 02:38:25;;;;;;;71.80;29.60;;;;;;;-145.69;100.00;71095.97;5074670;28;20206;-76
2022/08/28 02:40:52;;;;;;;64.18;28.88;;;;;;;-145.69;100.00;71097.97;5074664;28;20677;-76
2022/08/28 02:43:18;;;;;;;66.13;26.92;;;;;;;-145.69;100.00;71101.94;5074445;28;20198;-76
2022/08/28 02:45:45;;;;;;;60.20;26.77;;;;;;;-145.69;100.00;71097.97;5074528;28;20234;-76
2022/08/28 02:48:11;;;;;;;53.83;24.10;;;;;;;-145.69;100.00;71103.94;5074315;28;20728;-76
2022/08/28 02:50:39;;;;;;;46.03;23.13;;;;;;;-145.69;100.00;71103.94;5074572;28;20294;-75
2022/08/28 02:53:05;;;;;;;52.00;23.55;;;;;;;-145.69;100.00;71115.88;5074675;28;20199;-76
2022/08/28 02:55:32;;;;;;;46.30;22.40;;;;;;;-145.69;100.00;71131.78;5074319;28;20583;-75
2022/08/28 02:57:59;;;;;;;41.97;20.70;;;;;;;-145.69;100.00;71143.72;5073239;28;20199;-76
2022/08/28 03:00:26;;;;;;;35.95;19.15;;;;;;;-145.69;100.00;71153.66;5073768;28;20195;-75
2022/08/28 03:02:53;;;;;;;45.70;21.17;;;;;;;-145.69;100.00;71151.69;5073638;28;20201;-76
2022/08/28 03:05:23;;;;;;;53.88;25.13;;;;;;;-145.69;100.00;71143.72;5073872;28;20230;-75
2022/08/28 03:07:53;;;;;;;45.08;22.45;;;;;;;-145.69;100.00;71143.72;5074273;28;20577;-77
2022/08/28 03:10:20;;;;;;;60.50;24.58;;;;;;;-145.69;100.00;71143.72;5074003;28;20260;-77
2022/08/28 03:12:46;;;;;;;44.17;21.33;;;;;;;-145.69;100.00;71151.69;5074022;28;20290;-76
2022/08/28 03:15:13;;;;;;;55.80;24.13;;;;;;;-145.69;100.00;71159.63;5073341;28;20195;-77
2022/08/28 03:17:40;;;;;;;43.30;22.23;;;;;;;-145.69;100.00;71169.59;5073762;28;20210;-76
2022/08/28 03:20:09;;;;;;;50.33;24.23;;;;;;;-145.69;100.00;71159.63;5073934;28;20195;-76
2022/08/28 03:25:23;;;;;;;60.38;25.35;;;;;;;-145.69;100.00;71139.75;5073038;28;20233;-76
2022/08/28 03:27:50;;;;;;;61.10;25.77;;;;;;;-145.69;100.00;71127.81;5073653;28;20199;-75
2022/08/28 03:30:17;;;;;;;66.93;25.60;;;;;;;-145.69;100.00;71123.81;5073748;28;20206;-75
2022/08/28 03:32:44;;;;;;;74.60;28.02;;;;;;;-145.69;100.00;71115.88;5073561;28;20199;-78
2022/08/28 03:35:11;;;;;;;72.47;26.73;;;;;;;-145.69;100.00;71111.88;5073764;28;20206;-77
2022/08/28 03:37:38;;;;;;;74.88;28.30;;;;;;;-145.69;100.00;71115.88;5073390;28;20236;-77
2022/08/28 03:40:05;;;;;;;71.72;28.05;;;;;;;-145.69;100.00;71113.88;5073294;28;20210;-77
2022/08/28 03:42:33;;;;;;;52.55;24.17;;;;;;;-145.69;100.00;71117.84;5073392;28;20195;-76
2022/08/28 03:45:00;;;;;;;59.00;23.98;;;;;;;-145.69;100.00;71117.84;5073475;28;20276;-75
2022/08/28 03:47:27;;;;;;;51.58;23.38;;;;;;;-145.69;100.00;71117.84;5073587;28;20194;-75
2022/08/28 03:49:55;;;;;;;50.40;23.35;;;;;;;-145.69;100.00;71117.84;5072807;28;20655;-78
2022/08/28 03:52:21;;;;;;;58.92;25.05;;;;;;;-145.69;100.00;71123.81;5072904;28;20203;-78
2022/08/28 03:54:48;;;;;;;49.78;23.42;;;;;;;-145.69;100.00;71139.75;5073107;28;20687;-76
2022/08/28 03:57:17;;;;;;;41.10;19.83;;;;;;;-145.69;100.00;71163.63;5073234;28;20202;-76
2022/08/28 03:59:46;;;;;;;38.92;19.88;;;;;;;-145.69;100.00;71185.50;5073146;28;20593;-76
2022/08/28 04:02:12;;;;;;;36.15;18.98;;;;;;;-145.69;100.00;71197.44;5072701;28;20210;-76
2022/08/28 04:04:39;;;;;;;33.78;17.58;;;;;;;-145.69;100.00;71205.41;5072751;28;20653;-76
2022/08/28 04:07:05;;;;;;;38.95;18.48;;;;;;;-145.69;100.00;71217.34;5072934;28;20203;-76
2022/08/28 04:09:32;;;;;;;37.85;18.75;;;;;;;-145.69;100.00;71233.25;5072790;28;20203;-75
2022/08/28 04:11:58;;;;;;;42.65;20.35;;;;;;;-145.69;100.00;71235.25;5064321;28;20203;-76
2022/08/28 04:14:25;;;;;;;48.20;22.67;;;;;;;-145.69;100.00;71243.22;5052959;28;20668;-76
2022/08/28 04:16:53;;;;;;;52.00;23.38;;;;;;;-145.69;100.00;71241.22;5053014;28;20204;-76
2022/08/28 04:19:20;;;;;;;46.92;22.95;;;;;;;-145.69;100.00;71249.19;5052268;28;20554;-76
2022/08/28 04:21:47;;;;;;;45.63;21.73;;;;;;;-145.69;100.00;71259.13;5069933;28;20721;-76
2022/08/28 04:24:13;;;;;;;65.30;31.50;;;;;;;-145.69;100.00;71255.16;5071488;28;20798;-75
2022/08/28 04:26:40;;;;;;;61.33;25.02;;;;;;;-145.69;100.00;71253.16;5072598;28;20237;-76
2022/08/28 04:29:07;;;;;;;70.45;28.73;;;;;;;-145.69;100.00;71233.25;5073035;28;20209;-76
2022/08/28 04:31:33;;;;;;;62.20;25.48;;;;;;;-145.69;100.00;71251.16;5072494;28;20688;-75
2022/08/28 04:34:03;;;;;;;52.38;23.75;;;;;;;-145.69;100.00;71255.16;5072500;28;20205;-76
2022/08/28 04:36:32;;;;;;;56.30;23.33;;;;;;;-145.69;100.00;71263.09;5072121;28;20198;-76
2022/08/28 04:38:58;;;;;;;52.22;23.05;;;;;;;-145.69;100.00;71263.09;5072577;28;20206;-77
2022/08/28 04:41:26;;;;;;;57.95;23.58;;;;;;;-145.69;100.00;71263.09;5072736;28;20199;-76
2022/08/28 04:43:55;;;;;;;69.13;26.98;;;;;;;-145.69;100.00;71239.22;5072709;28;20210;-76
2022/08/28 04:46:22;;;;;;;60.38;24.67;;;;;;;-145.69;100.00;71229.28;5072395;28;20222;-75
2022/08/28 04:48:48;;;;;;;64.97;26.55;;;;;;;-145.69;100.00;71211.38;5072397;28;20241;-76
2022/08/28 04:51:16;;;;;;;73.57;28.83;;;;;;;-145.69;100.00;71201.41;5072320;28;20210;-76
2022/08/28 04:53:43;;;;;;;70.35;26.38;;;;;;;-145.69;100.00;71201.41;5072879;28;20199;-76
2022/08/28 04:56:12;;;;;;;69.45;26.88;;;;;;;-145.69;100.00;71195.47;5072124;28;20202;-76
2022/08/28 04:58:40;;;;;;;78.75;27.77;;;;;;;-145.69;100.00;71179.53;5072717;28;20203;-76
2022/08/28 05:01:09;;;;;;;79.85;28.20;;;;;;;-145.69;100.00;71167.59;5072455;28;20240;-76
2022/08/28 05:03:36;;;;;;;56.22;24.25;;;;;;;-145.69;100.00;71175.56;5072166;28;20210;-75
2022/08/28 05:06:03;;;;;;;58.65;24.60;;;;;;;-145.69;100.00;71171.56;5072612;28;20238;-76
2022/08/28 05:08:32;;;;;;;59.00;25.52;;;;;;;-145.69;100.00;71159.63;5072555;28;20209;-76
2022/08/28 05:11:09;;;;;;;63.47;26.67;;;;;;;-145.69;100.00;71157.66;5072493;28;20206;-75
2022/08/28 05:13:36;;;;;;;53.85;23.17;;;;;;;-145.69;100.00;71133.78;5071972;28;20198;-77
2022/08/28 05:16:04;;;;;;;66.28;25.95;;;;;;;-145.69;100.00;71135.75;5072364;28;20206;-76
2022/08/28 05:18:30;;;;;;;50.17;22.75;;;;;;;-145.69;100.00;71119.84;5072734;28;20199;-77
2022/08/28 05:20:57;;;;;;;54.50;22.50;;;;;;;-145.69;100.00;71111.88;5074481;28;20657;-77
2022/08/28 05:23:24;;;;;;;49.65;21.58;;;;;;;-145.69;100.00;71103.94;5076115;28;20292;-77
2022/08/28 05:25:52;;;;;;;56.85;25.58;;;;;;;-145.69;100.00;71117.84;5076097;28;20230;-77
2022/08/28 05:28:19;;;;;;;58.35;23.88;;;;;;;-145.69;100.00;71119.84;5076253;28;20206;-77
2022/08/28 05:30:46;;;;;;;46.33;20.67;;;;;;;-145.69;100.00;71117.84;5075261;28;20199;-76
2022/08/28 05:33:14;;;;;;;44.95;21.90;;;;;;;-145.69;100.00;71111.88;5076201;28;20222;-76
2022/08/28 05:35:43;;;;;;;53.42;22.10;;;;;;;-145.69;100.00;71103.94;5075775;28;20657;-77
2022/08/28 05:38:11;;;;;;;39.97;18.20;;;;;;;-145.69;100.00;71099.94;5075861;28;20207;-76
2022/08/28 05:40:40;;;;;;;39.58;19.83;;;;;;;-145.69;100.00;71082.03;5075554;28;20209;-75
2022/08/28 05:43:09;;;;;;;40.03;20.23;;;;;;;-145.69;100.00;71064.13;5075359;28;20202;-75
2022/08/28 05:45:35;;;;;;;49.08;23.20;;;;;;;-145.69;100.00;71044.22;5075837;28;20261;-77
2022/08/28 05:48:02;;;;;;;52.33;22.75;;;;;;;-145.69;100.00;71028.31;5075096;28;20242;-76
2022/08/28 05:50:29;;;;;;;47.45;22.17;;;;;;;-145.69;100.00;71030.31;5075701;28;20295;-76
2022/08/28 05:52:55;;;;;;;45.28;19.60;;;;;;;-145.69;100.00;71024.34;5075499;28;20291;-75
2022/08/28 05:55:22;;;;;;;39.00;17.70;;;;;;;-145.69;100.00;71026.31;5075593;28;20302;-76
2022/08/28 05:57:48;;;;;;;30.23;16.98;;;;;;;-145.69;100.00;71030.31;5075331;28;20318;-75
2022/08/28 06:00:17;;;;;;;32.97;17.17;;;;;;;-145.69;100.00;71042.25;5075647;28;20203;-76
2022/08/28 06:02:43;;;;;;;43.03;20.73;;;;;;;-145.69;100.00;71048.22;5075156;28;20667;-75
2022/08/28 06:05:10;;;;;;;39.65;20.55;;;;;;;-145.69;100.00;71044.22;5075460;28;20575;-76
2022/08/28 06:07:37;;;;;;;32.63;19.35;;;;;;;-145.69;100.00;71042.25;5075182;28;20201;-76
2022/08/28 06:10:04;;;;;;;37.50;19.95;;;;;;;-145.69;100.00;71028.31;5074625;28;20649;-77
2022/08/28 06:12:30;;;;;;;35.83;18.92;;;;;;;-145.69;100.00;71028.31;5054926;28;20210;-76
2022/08/28 06:14:57;;;;;;;37.35;18.85;;;;;;;-145.69;100.00;71022.34;5055322;28;20547;-76
2022/08/28 06:17:25;;;;;;;47.67;22.38;;;;;;;-145.69;100.00;71006.44;5064288;28;20198;-76
2022/08/28 06:19:51;;;;;;;43.75;23.70;;;;;;;-145.69;100.00;71004.44;5075240;28;20277;-75
2022/08/28 06:22:18;;;;;;;49.33;25.27;;;;;;;-145.69;100.00;70980.56;5074966;28;20199;-76
2022/08/28 06:24:44;;;;;;;48.72;23.63;;;;;;;-145.69;100.00;70924.84;5075031;28;20198;-76
2022/08/28 06:27:11;;;;;;;52.00;26.50;;;;;;;-145.69;100.00;70940.78;5074891;28;20226;-76
2022/08/28 06:29:38;;;;;;;42.25;23.10;;;;;;;-145.69;100.00;70912.91;5075076;28;20199;-76
2022/08/28 06:32:05;;;;;;;44.03;23.08;;;;;;;-145.69;100.00;70881.09;5074663;28;20199;-76
2022/08/28 06:34:33;;;;;;;44.35;23.30;;;;;;;-145.69;100.00;70881.09;5074453;28;20649;-76
2022/08/28 06:36:59;;;;;;;42.83;21.55;;;;;;;-145.69;100.00;70837.31;5074812;28;20649;-76
2022/08/28 06:39:26;;;;;;;44.50;22.25;;;;;;;-145.69;100.00;70803.50;5074685;28;20198;-76
2022/08/28 06:41:53;;;;;;;36.83;20.00;;;;;;;-145.69;100.00;70811.44;5074608;28;20195;-76
2022/08/28 06:44:22;;;;;;;29.08;17.48;;;;;;;-145.69;100.00;70791.56;5074477;28;20205;-76
2022/08/28 06:46:51;;;;;;;30.77;17.05;;;;;;;-145.69;100.00;70817.41;5074022;28;20264;-76
2022/08/28 06:49:18;;;;;;;25.92;15.32;;;;;;;-145.69;100.00;70795.53;5074397;28;20238;-76
2022/08/28 06:51:45;;;;;;;23.90;13.50;;;;;;;-145.69;100.00;70761.72;5074192;28;20202;-76
2022/08/28 06:54:14;;;;;;;25.45;15.70;;;;;;;-145.69;100.00;70757.72;5074700;28;20210;-76
2022/08/28 06:56:40;;;;;;;22.65;14.05;;;;;;;-145.69;100.00;70749.78;5074518;28;20199;-76
2022/08/28 06:59:07;;;;;;;23.83;14.63;;;;;;;-145.69;100.00;70735.84;5074046;28;20207;-76
2022/08/28 07:01:36;;;;;;;22.90;13.32;;;;;;;-145.69;100.00;70737.84;5074025;28;20641;-76
2022/08/28 07:04:05;;;;;;;20.55;12.70;;;;;;;-145.69;100.00;70737.84;5074353;28;20286;-76
2022/08/28 07:06:34;;;;;;;21.05;11.45;;;;;;;-145.69;100.00;70755.75;5074067;28;20227;-77
2022/08/28 07:09:04;;;;;;;18.60;11.32;;;;;;;-145.69;100.00;70767.69;5073691;28;20549;-76
2022/08/28 07:11:32;;;;;;;19.08;11.07;;;;;;;-145.69;100.00;70765.69;5074138;28;20252;-76
2022/08/28 07:14:00;;;;;;;22.13;11.18;;;;;;;-145.69;100.00;70769.66;5074064;28;20206;-76
2022/08/28 07:16:30;;;;;;;18.42;10.75;;;;;;;-145.69;100.00;70775.63;5073874;28;20202;-76
2022/08/28 07:18:58;;;;;;;18.88;10.30;;;;;;;-145.69;100.00;70765.69;5073808;28;20261;-76
2022/08/28 07:21:25;;;;;;;19.60;11.05;;;;;;;-145.69;100.00;70751.75;5074141;28;20199;-78
2022/08/28 07:23:52;;;;;;;20.35;10.63;;;;;;;-145.69;100.00;70725.91;5073808;28;20221;-78
2022/08/28 07:26:22;;;;;;;20.55;11.07;;;;;;;-145.69;100.00;70737.84;5073508;28;20710;-75
2022/08/28 07:28:49;;;;;;;16.25;9.55;;;;;;;-145.69;100.00;70698.03;5073955;28;20230;-76
2022/08/28 07:31:17;;;;;;;19.35;10.85;;;;;;;-145.69;100.00;70725.91;5073419;28;20199;-76
2022/08/28 07:33:44;;;;;;;13.05;8.25;;;;;;;-145.69;100.00;70688.09;5073618;28;20198;-76
2022/08/28 07:36:13;;;;;;;14.52;8.77;;;;;;;-145.69;100.00;70700.03;5073338;28;20264;-77
2022/08/28 07:38:42;;;;;;;16.25;9.07;;;;;;;-145.69;100.00;70682.13;5073526;28;20211;-76
2022/08/28 07:41:14;;;;;;;12.90;8.00;;;;;;;-145.69;100.00;70664.22;5073609;28;20199;-76
2022/08/28 07:46:28;;;;;;;16.25;9.18;;;;;;;-145.69;100.00;70682.13;5072597;28;20311;-75
2022/08/28 07:48:56;;;;;;;14.60;8.68;;;;;;;-145.69;100.00;70660.25;5073143;28;20330;-77
2022/08/28 07:51:23;;;;;;;16.60;9.20;;;;;;;-145.69;100.00;70662.22;5073378;28;20292;-78
2022/08/28 07:53:49;;;;;;;13.98;8.25;;;;;;;-145.69;100.00;70658.25;5073126;28;20687;-76
2022/08/28 07:56:16;;;;;;;14.65;8.20;;;;;;;-145.69;100.00;70636.38;5073209;28;20206;-77
2022/08/28 07:58:44;;;;;;;15.20;9.68;;;;;;;-145.69;100.00;70646.31;5073123;28;20233;-76
2022/08/28 08:01:11;;;;;;;15.85;9.60;;;;;;;-145.69;100.00;70650.28;5072574;28;20438;-75
2022/08/28 08:03:38;;;;;;;12.32;8.32;;;;;;;-145.69;100.00;70632.38;5072770;28;20202;-76
2022/08/28 08:06:05;;;;;;;11.82;7.28;;;;;;;-145.69;100.00;70598.56;5072969;28;20218;-75
2022/08/28 08:08:34;;;;;;;11.93;7.38;;;;;;;-145.69;100.00;70602.56;5073017;28;20202;-76
2022/08/28 08:11:04;;;;;;;14.27;7.80;;;;;;;-145.69;100.00;70618.47;5055417;28;20200;-75
2022/08/28 08:13:31;;;;;;;15.45;7.72;;;;;;;-145.69;100.00;70582.66;5053018;28;20554;-77
2022/08/28 08:16:03;;;;;;;10.50;6.97;;;;;;;-145.69;100.00;70534.91;5052865;28;20725;-77
2022/08/28 08:18:30;;;;;;;10.95;6.68;;;;;;;-145.69;100.00;70493.13;5072880;28;20561;-74
2022/08/28 08:20:56;;;;;;;11.75;7.35;;;;;;;-145.69;99.71;70491.13;5073000;28;20213;-75
2022/08/28 08:23:24;;;;;;;12.93;6.85;;;;;;;-145.69;99.16;70505.06;5072818;28;20195;-77
2022/08/28 08:25:59;;;;;;;10.50;6.78;;;;;;;-145.69;98.23;70493.13;5072712;28;20206;-77
2022/08/28 08:28:27;;;;;;;10.40;6.45;;;;;;;-145.69;100.00;70522.97;5072716;28;20259;-77
2022/08/28 08:31:05;;;;;;;15.23;7.03;;;;;;;-145.69;96.69;70503.06;5072789;28;20203;-76
2022/08/28 08:33:31;;;;;;;11.23;6.68;;;;;;;-145.69;96.01;70495.13;5072776;28;20199;-75
2022/08/28 08:36:00;;;;;;;9.85;5.70;;;;;;;-145.69;95.24;70449.38;5072387;28;20237;-76
2022/08/28 08:38:30;;;;;;;9.93;6.28;;;;;;;-145.69;97.08;70445.38;5073084;28;20224;-75
2022/08/28 08:40:58;;;;;;;15.43;5.68;;;;;;;-145.69;92.18;70427.47;5072624;28;20222;-76
2022/08/28 08:43:28;;;;;;;13.45;5.60;;;;;;;-145.69;94.34;70427.47;5072680;28;20217;-75
2022/08/28 08:45:55;;;;;;;12.65;6.35;;;;;;;-145.69;94.52;70475.22;5072656;28;20203;-76
2022/08/28 08:48:27;;;;;;;11.88;6.00;;;;;;;-145.69;95.27;70505.06;5072257;28;20234;-75
2022/08/28 08:50:58;;;;;;;14.82;6.25;;;;;;;-145.69;97.58;70507.06;5072911;28;20194;-75
2022/08/28 08:53:32;;;;;;;12.90;7.95;;;;;;;-145.69;100.00;70564.75;5072495;28;20273;-75
2022/08/28 08:56:01;;;;;;;13.50;8.35;;;;;;;-145.69;100.00;70582.66;5075435;28;20202;-75
2022/08/28 08:58:32;;;;;;;18.02;10.85;;;;;;;-145.69;100.00;70648.31;5076833;28;20206;-76
2022/08/28 09:01:03;;;;;;;18.88;10.05;;;;;;;-145.69;100.00;70646.31;5076325;28;20194;-75
2022/08/28 09:03:47;;;;;;;17.67;11.27;;;;;;;-145.69;100.00;70626.41;5076585;28;20199;-77
2022/08/28 09:06:21;;;;;;;17.83;10.90;;;;;;;-145.69;100.00;70610.50;5076572;28;20201;-76
2022/08/28 09:08:52;;;;;;;19.63;11.00;;;;;;;-145.69;100.00;70546.84;5076684;28;20216;-76
2022/08/28 09:11:31;;;;;;;15.30;9.10;;;;;;;-145.69;100.00;70487.16;5076528;28;20697;-76
2022/08/28 09:14:02;;;;;;;12.18;8.25;;;;;;;-145.69;99.05;70495.13;5076294;28;20232;-75
2022/08/28 09:16:35;;;;;;;18.38;10.05;;;;;;;-145.69;100.00;70519.00;5076060;28;20671;-76
2022/08/28 09:19:04;;;;;;;13.07;8.98;;;;;;;-145.69;100.00;70493.13;5076406;28;20225;-76
2022/08/28 09:21:33;;;;;;;16.67;9.15;;;;;;;-145.69;100.00;70515.00;5076207;28;20276;-77
2022/08/28 09:24:03;;;;;;;15.00;9.18;;;;;;;-145.69;100.00;70519.00;5076368;28;20199;-74
2022/08/28 09:26:30;;;;;;;20.63;10.40;;;;;;;-145.69;100.00;70526.94;5076008;28;20226;-77
2022/08/28 09:29:02;;;;;;;15.05;8.93;;;;;;;-145.69;100.00;70552.81;5075941;28;20198;-76
2022/08/28 09:31:32;;;;;;;14.80;8.43;;;;;;;-145.69;100.00;70534.91;5076132;28;20312;-77
2022/08/28 09:34:19;;;;;;;16.75;7.63;;;;;;;-145.69;100.00;70538.88;5075919;28;20210;-76
2022/08/28 09:36:46;;;;;;;15.52;8.40;;;;;;;-145.69;100.00;70558.78;5075863;28;20217;-76
2022/08/28 09:39:18;;;;;;;16.73;8.00;;;;;;;-145.69;100.00;70562.75;5076151;28;20225;-76
2022/08/28 09:44:55;;;;;;;13.02;8.52;;;;;;;-145.69;100.00;70550.81;5075868;28;20198;-77
2022/08/28 09:47:41;;;;;;;13.27;8.10;;;;;;;-145.69;100.00;70550.81;5075985;28;20222;-75
2022/08/28 09:50:34;;;;;;;15.30;8.83;;;;;;;-145.69;100.00;70560.78;5062481;28;20488;-76
2022/08/28 09:53:17;;;;;;;16.10;7.40;;;;;;;-145.69;100.00;70526.94;5059907;28;20205;-76
2022/08/28 09:55:56;;;;;;;13.30;8.52;;;;;;;-145.69;100.00;70505.06;5074475;28;20650;-76
2022/08/28 09:58:29;;;;;;;11.90;7.55;;;;;;;-145.69;99.49;70481.19;5074134;28;20226;-76
2022/08/28 10:01:02;;;;;;;10.60;7.35;;;;;;;-145.69;99.05;70479.19;5074261;28;20765;-77
2022/08/28 10:03:38;;;;;;;10.23;7.10;;;;;;;-145.69;96.21;70433.44;5073991;28;20203;-77
2022/08/28 10:06:11;;;;;;;12.02;6.82;;;;;;;-145.69;93.89;70371.78;5074047;28;20198;-76
2022/08/28 10:09:04;;;;;;;13.77;6.55;;;;;;;-145.69;95.03;70383.72;5073977;28;20697;-75
2022/08/28 10:11:49;;;;;;;11.65;6.47;;;;;;;-145.69;89.69;70353.88;5073811;28;20187;-76
2022/08/28 10:14:31;;;;;;;8.32;5.78;;;;;;;-145.69;90.24;70339.94;5069119;28;20534;-76
2022/08/28 10:17:15;;;;;;;11.27;6.47;;;;;;;-145.69;92.80;70423.50;5053692;28;20211;-76
2022/08/28 10:19:51;;;;;;;12.52;6.75;;;;;;;-145.69;93.44;70441.41;5054124;28;20286;-76
2022/08/28 10:22:38;;;;;;;15.45;6.20;;;;;;;-145.69;98.04;70485.16;5053351;28;20612;-77
2022/08/28 10:25:20;;;;;;;13.65;6.95;;;;;;;-145.69;96.41;70469.25;5053594;28;20199;-77
2022/08/28 10:28:05;;;;;;;9.68;5.72;;;;;;;-145.69;98.09;70497.09;5066939;28;20229;-76
2022/08/28 10:30:37;;;;;;;11.30;5.85;;;;;;;-145.69;94.75;70497.09;5073768;28;20577;-75
2022/08/28 10:33:24;;;;;;;15.95;7.07;;;;;;;-145.69;95.73;70520.97;5074284;28;20206;-83
2022/08/28 10:36:03;;;;;;;11.85;6.70;;;;;;;-145.69;92.97;70495.13;5073757;28;20202;-79
2022/08/28 10:38:38;;;;;;;11.73;6.40;;;;;;;-145.69;91.63;70475.22;5073479;28;20661;-78
2022/08/28 10:41:10;;;;;;;10.20;5.78;;;;;;;-145.69;92.51;70447.38;5073581;28;20724;-77
2022/08/28 10:43:43;;;;;;;11.75;6.13;;;;;;;-145.69;88.19;70417.53;5073899;28;20199;-76
2022/08/28 10:46:13;;;;;;;12.07;6.00;;;;;;;-145.69;90.65;70351.88;5073552;28;20198;-77
2022/08/28 10:48:46;;;;;;;11.27;5.82;;;;;;;-145.69;84.87;70335.97;5037341;28;1039001;-76
2022/08/28 10:51:18;;;;;;;11.55;5.18;;;;;;;-145.69;86.16;70363.81;5074695;28;20203;-76
2022/08/28 10:53:51;;;;;;;9.10;5.53;;;;;;;-145.69;89.10;70417.53;5074364;28;20199;-78
2022/08/28 10:56:21;;;;;;;9.75;6.43;;;;;;;-145.69;90.63;70491.13;5074193;28;20198;-77
2022/08/28 10:58:51;;;;;;;8.32;5.40;;;;;;;-145.69;89.56;70487.16;5074628;28;20213;-77
2022/08/28 11:01:27;;;;;;;7.93;5.00;;;;;;;-145.69;89.46;70439.41;5074339;28;20205;-76
2022/08/28 11:03:55;;;;;;;10.90;5.57;;;;;;;-145.69;90.92;70427.47;5074301;28;20198;-77
2022/08/28 11:06:28;;;;;;;11.20;5.90;;;;;;;-145.69;88.38;70419.53;5074219;28;20280;-76
2022/08/28 11:08:58;;;;;;;9.60;5.45;;;;;;;-145.69;84.40;70395.66;5073720;28;20584;-76
2022/08/28 11:11:43;;;;;;;9.43;5.32;;;;;;;-145.69;85.00;70369.78;5073968;28;20199;-77
2022/08/28 11:14:10;;;;;;;9.48;4.93;;;;;;;-145.69;84.59;70335.97;5073905;28;20210;-76
2022/08/28 11:16:41;;;;;;;11.38;5.22;;;;;;;-145.69;85.87;70351.88;5073522;28;20237;-75